Time;durP1;ratioP1;P1;durP2;ratioP2;P2;SDS_P1;SDS_P2;PMS_P1;PMS_P2;Temp;Humidity;BMP_temperature;BMP_pressure;BME280_temperature;BME280_humidity;BME280_pressure;Samples;Min_cycle;Max_cycle;Signal;HPM_P1;HPM_P2
2022/11/07 00:01:15;;;;;;;11.52;6.50;;;;;;;;;;5092661;28;20043;-74
2022/11/07 00:03:42;;;;;;;14.35;6.75;;;;;;;;;;5092886;28;20385;-74
2022/11/07 00:06:09;;;;;;;15.50;6.80;;;;;;;;;;5092717;28;20533;-74
2022/11/07 00:08:35;;;;;;;14.43;6.80;;;;;;;;;;5074740;28;20028;-74
2022/11/07 00:11:01;;;;;;;12.88;6.68;;;;;;;;;;5092517;28;20571;-74
2022/11/07 00:13:27;;;;;;;13.82;6.72;;;;;;;;;;5092726;28;20523;-75
2022/11/07 00:16:00;;;;;;;14.60;7.38;;;;;;;;;;5092334;28;20032;-74
2022/11/07 00:18:25;;;;;;;13.40;6.63;;;;;;;;;;5092583;28;20036;-74
2022/11/07 00:20:50;;;;;;;12.85;6.38;;;;;;;;;;5092428;28;20030;-75
2022/11/07 00:23:16;;;;;;;13.77;6.15;;;;;;;;;;5092792;28;20042;-74
2022/11/07 00:25:41;;;;;;;11.80;6.22;;;;;;;;;;5073945;28;20028;-74
2022/11/07 00:28:06;;;;;;;12.85;6.25;;;;;;;;;;5092287;28;20039;-74
2022/11/07 00:30:32;;;;;;;10.20;5.55;;;;;;;;;;5092092;28;20106;-74
2022/11/07 00:32:57;;;;;;;11.32;5.43;;;;;;;;;;5092391;28;20019;-74
2022/11/07 00:35:22;;;;;;;10.68;5.88;;;;;;;;;;5092458;28;20061;-74
2022/11/07 00:37:48;;;;;;;13.35;6.80;;;;;;;;;;5092131;28;20475;-74
2022/11/07 00:40:13;;;;;;;12.90;6.60;;;;;;;;;;5091990;28;20028;-74
2022/11/07 00:42:38;;;;;;;15.20;7.30;;;;;;;;;;5091784;28;20399;-74
2022/11/07 00:45:05;;;;;;;15.85;7.00;;;;;;;;;;5073724;28;20156;-74
2022/11/07 00:47:30;;;;;;;15.10;7.30;;;;;;;;;;5092023;28;20024;-74
2022/11/07 00:49:56;;;;;;;13.55;6.57;;;;;;;;;;5091957;28;20112;-74
2022/11/07 00:52:21;;;;;;;13.55;7.07;;;;;;;;;;5091799;28;20024;-74
2022/11/07 00:54:46;;;;;;;13.30;7.30;;;;;;;;;;5090842;28;20403;-74
2022/11/07 00:57:12;;;;;;;11.65;6.15;;;;;;;;;;5073268;28;20127;-74
2022/11/07 00:59:37;;;;;;;11.75;6.40;;;;;;;;;;5091579;28;20400;-74
2022/11/07 01:02:02;;;;;;;12.75;6.82;;;;;;;;;;5091310;28;20029;-74
2022/11/07 01:07:12;;;;;;;12.90;6.60;;;;;;;;;;5091672;28;20073;-74
2022/11/07 01:09:37;;;;;;;14.75;7.28;;;;;;;;;;5091643;28;20012;-74
2022/11/07 01:12:03;;;;;;;12.73;7.05;;;;;;;;;;5091155;28;20027;-74
2022/11/07 01:14:29;;;;;;;15.07;6.93;;;;;;;;;;5091547;28;20384;-73
2022/11/07 01:16:55;;;;;;;15.02;7.00;;;;;;;;;;5091464;28;20332;-74
2022/11/07 01:19:20;;;;;;;10.45;6.05;;;;;;;;;;5091639;28;20159;-74
2022/11/07 01:21:46;;;;;;;14.30;6.38;;;;;;;;;;5090929;28;20479;-74
2022/11/07 01:24:12;;;;;;;11.30;6.53;;;;;;;;;;5091275;28;20050;-74
2022/11/07 01:26:40;;;;;;;11.32;6.20;;;;;;;;;;5090510;28;20032;-74
2022/11/07 01:29:05;;;;;;;13.32;6.18;;;;;;;;;;5072938;28;20036;-75
2022/11/07 01:31:31;;;;;;;12.55;6.22;;;;;;;;;;5072563;28;20445;-74
2022/11/07 01:33:58;;;;;;;13.73;6.38;;;;;;;;;;5091235;28;20483;-74
2022/11/07 01:36:24;;;;;;;11.75;6.03;;;;;;;;;;5090877;28;20024;-74
2022/11/07 01:38:49;;;;;;;14.65;6.40;;;;;;;;;;5090746;28;20039;-74
2022/11/07 01:41:24;;;;;;;10.93;5.72;;;;;;;;;;5072008;28;20093;-74
2022/11/07 01:43:50;;;;;;;11.63;5.88;;;;;;;;;;5090790;28;20032;-74
2022/11/07 01:46:16;;;;;;;9.60;5.50;;;;;;;;;;5090579;28;20028;-74
2022/11/07 01:48:45;;;;;;;10.30;5.80;;;;;;;;;;5090864;28;20097;-74
2022/11/07 01:51:12;;;;;;;11.73;5.80;;;;;;;;;;5090555;28;20024;-74
2022/11/07 01:53:38;;;;;;;10.65;5.43;;;;;;;;;;5090824;28;20435;-74
2022/11/07 01:56:08;;;;;;;9.45;5.30;;;;;;;;;;5090458;28;20020;-74
2022/11/07 01:58:34;;;;;;;11.43;5.57;;;;;;;;;;5089849;28;20044;-74
2022/11/07 02:00:59;;;;;;;11.02;4.97;;;;;;;;;;5090266;28;20016;-74
2022/11/07 02:03:25;;;;;;;9.50;5.10;;;;;;;;;;5090675;28;20395;-74
2022/11/07 02:06:02;;;;;;;10.25;4.68;;;;;;;;;;5090292;28;20022;-74
2022/11/07 02:08:29;;;;;;;7.78;4.82;;;;;;;;;;5090511;28;20387;-74
2022/11/07 02:10:55;;;;;;;7.80;4.78;;;;;;;;;;5090400;28;20034;-74
2022/11/07 02:13:26;;;;;;;9.98;4.78;;;;;;;;;;5090556;28;20028;-74
2022/11/07 02:15:51;;;;;;;9.18;4.97;;;;;;;;;;5090457;28;20028;-74
2022/11/07 02:18:17;;;;;;;8.82;4.97;;;;;;;;;;5090393;28;20077;-74
2022/11/07 02:20:44;;;;;;;9.45;5.20;;;;;;;;;;5090371;28;20415;-74
2022/11/07 02:23:19;;;;;;;8.57;5.00;;;;;;;;;;5089923;28;20106;-74
2022/11/07 02:25:44;;;;;;;8.77;5.00;;;;;;;;;;5090451;28;20016;-74
2022/11/07 02:28:12;;;;;;;11.20;5.53;;;;;;;;;;5089871;28;20047;-74
2022/11/07 02:30:37;;;;;;;9.85;5.45;;;;;;;;;;5090107;28;20032;-74
2022/11/07 02:33:14;;;;;;;11.75;5.80;;;;;;;;;;5089847;28;20023;-74
2022/11/07 02:35:45;;;;;;;10.00;5.45;;;;;;;;;;5072059;28;20173;-75
2022/11/07 02:38:29;;;;;;;7.90;5.22;;;;;;;;;;5089855;28;20031;-75
2022/11/07 02:41:02;;;;;;;9.90;5.95;;;;;;;;;;5090210;28;20055;-74
2022/11/07 02:43:30;;;;;;;12.38;6.75;;;;;;;;;;5089633;28;20024;-74
2022/11/07 02:45:58;;;;;;;10.90;6.32;;;;;;;;;;5089991;28;20035;-74
2022/11/07 02:48:38;;;;;;;10.90;5.97;;;;;;;;;;5089898;28;20028;-74
2022/11/07 02:51:03;;;;;;;10.63;5.80;;;;;;;;;;5090095;28;20024;-74
2022/11/07 02:53:29;;;;;;;10.15;5.97;;;;;;;;;;5089614;28;20508;-73
2022/11/07 02:55:54;;;;;;;8.32;5.13;;;;;;;;;;5089666;28;20028;-73
2022/11/07 02:58:19;;;;;;;10.20;4.97;;;;;;;;;;5089028;28;20488;-74
2022/11/07 03:00:45;;;;;;;9.05;4.82;;;;;;;;;;5089898;28;20032;-73
2022/11/07 03:03:11;;;;;;;7.32;4.22;;;;;;;;;;5071161;28;20028;-73
2022/11/07 03:05:36;;;;;;;7.80;4.30;;;;;;;;;;5089847;28;20032;-74
2022/11/07 03:08:02;;;;;;;6.85;4.10;;;;;;;;;;5089489;28;20104;-73
2022/11/07 03:10:27;;;;;;;7.45;4.40;;;;;;;;;;5089753;28;20032;-73
2022/11/07 03:12:53;;;;;;;7.75;3.83;;;;;;;;;;5071035;28;20055;-73
2022/11/07 03:15:18;;;;;;;7.93;4.32;;;;;;;;;;5089632;28;20020;-74
2022/11/07 03:17:43;;;;;;;8.77;4.13;;;;;;;;;;5090125;28;20391;-73
2022/11/07 03:20:09;;;;;;;9.20;3.80;;;;;;;;;;5093885;28;20406;-73
2022/11/07 03:22:35;;;;;;;7.72;3.80;;;;;;;;;;5093379;28;20447;-73
2022/11/07 03:25:00;;;;;;;7.45;3.90;;;;;;;;;;5093696;28;20032;-73
2022/11/07 03:27:26;;;;;;;9.60;3.83;;;;;;;;;;5093154;28;20144;-73
2022/11/07 03:29:51;;;;;;;7.43;3.90;;;;;;;;;;5093500;28;20028;-73
2022/11/07 03:32:17;;;;;;;7.00;3.63;;;;;;;;;;5093057;28;20053;-73
2022/11/07 03:34:42;;;;;;;7.20;4.10;;;;;;;;;;5075252;28;20040;-73
2022/11/07 03:37:07;;;;;;;7.32;4.10;;;;;;;;;;5093191;28;20099;-73
2022/11/07 03:39:33;;;;;;;6.57;3.90;;;;;;;;;;5093124;28;20153;-73
2022/11/07 03:41:58;;;;;;;7.20;3.97;;;;;;;;;;5092872;28;20028;-72
2022/11/07 03:44:23;;;;;;;7.10;3.85;;;;;;;;;;5093243;28;20387;-73
2022/11/07 03:46:49;;;;;;;7.30;3.88;;;;;;;;;;5074914;28;20304;-73
2022/11/07 03:49:14;;;;;;;7.35;3.70;;;;;;;;;;5093018;28;20035;-73
2022/11/07 03:51:40;;;;;;;7.90;3.88;;;;;;;;;;5092993;28;20388;-73
2022/11/07 03:54:05;;;;;;;6.55;3.85;;;;;;;;;;5092805;28;20035;-73
2022/11/07 03:56:30;;;;;;;7.82;3.90;;;;;;;;;;5093014;28;20031;-74
2022/11/07 03:58:56;;;;;;;6.25;3.50;;;;;;;;;;5092416;28;20476;-73
2022/11/07 04:01:21;;;;;;;8.52;4.03;;;;;;;;;;5093079;28;20190;-73
2022/11/07 04:03:47;;;;;;;7.68;4.25;;;;;;;;;;5092632;28;20032;-73
2022/11/07 04:06:13;;;;;;;7.55;3.75;;;;;;;;;;5092789;28;20012;-73
2022/11/07 04:08:38;;;;;;;9.07;3.95;;;;;;;;;;5092394;28;20434;-73
2022/11/07 04:11:04;;;;;;;9.13;3.85;;;;;;;;;;5092775;28;20024;-73
2022/11/07 04:19:00;;;;;;;7.75;3.58;;;;;;;;;;5092607;28;20386;-74
2022/11/07 04:21:25;;;;;;;6.63;3.83;;;;;;;;;;5092599;28;20035;-74
2022/11/07 04:23:51;;;;;;;8.65;3.70;;;;;;;;;;5073820;28;20032;-74
2022/11/07 04:29:00;;;;;;;8.30;3.75;;;;;;;;;;5092183;28;20034;-74
2022/11/07 04:31:25;;;;;;;6.70;3.42;;;;;;;;;;5092423;28;20028;-74
2022/11/07 04:33:51;;;;;;;7.75;3.90;;;;;;;;;;5092208;28;20024;-74
2022/11/07 04:36:17;;;;;;;7.57;3.72;;;;;;;;;;5092270;28;20031;-74
2022/11/07 04:38:43;;;;;;;8.13;3.97;;;;;;;;;;5092180;28;20270;-74
2022/11/07 04:41:18;;;;;;;7.53;3.45;;;;;;;;;;5092045;28;20357;-74
2022/11/07 04:43:43;;;;;;;6.18;3.50;;;;;;;;;;5073423;28;20024;-74
2022/11/07 04:46:09;;;;;;;8.52;3.65;;;;;;;;;;5073603;28;20424;-74
2022/11/07 04:48:34;;;;;;;5.22;3.33;;;;;;;;;;5091721;28;20028;-74
2022/11/07 04:50:59;;;;;;;6.43;3.28;;;;;;;;;;5073556;28;20027;-73
2022/11/07 04:53:25;;;;;;;7.47;3.58;;;;;;;;;;5091669;28;20021;-74
2022/11/07 04:55:50;;;;;;;9.27;3.53;;;;;;;;;;5092032;28;20031;-73
2022/11/07 04:58:15;;;;;;;5.68;3.33;;;;;;;;;;5091419;28;20063;-74
2022/11/07 05:00:41;;;;;;;10.60;3.67;;;;;;;;;;5073521;28;20058;-74
2022/11/07 05:03:07;;;;;;;7.45;3.67;;;;;;;;;;5091322;28;20028;-74
2022/11/07 05:05:33;;;;;;;6.30;3.17;;;;;;;;;;5091635;28;20031;-74
2022/11/07 05:07:58;;;;;;;7.85;3.67;;;;;;;;;;5091560;28;20099;-74
2022/11/07 05:10:27;;;;;;;7.70;3.60;;;;;;;;;;5091667;28;20054;-73
2022/11/07 05:12:53;;;;;;;6.18;3.63;;;;;;;;;;5091247;28;20024;-74
2022/11/07 05:15:19;;;;;;;9.55;3.40;;;;;;;;;;5073332;28;20028;-74
2022/11/07 05:17:44;;;;;;;7.95;3.50;;;;;;;;;;5091398;28;20024;-74
2022/11/07 05:20:32;;;;;;;9.32;3.63;;;;;;;;;;5091062;28;20127;-74
2022/11/07 05:23:16;;;;;;;8.27;3.70;;;;;;;;;;5072727;28;20395;-74
2022/11/07 05:25:53;;;;;;;5.55;3.45;;;;;;;;;;5091468;28;20052;-74
2022/11/07 05:28:21;;;;;;;8.65;3.13;;;;;;;;;;5090826;28;20059;-73
2022/11/07 05:30:46;;;;;;;9.23;3.53;;;;;;;;;;5091315;28;20027;-75
2022/11/07 05:33:14;;;;;;;6.45;3.30;;;;;;;;;;5090797;28;20038;-74
2022/11/07 05:35:40;;;;;;;5.85;2.97;;;;;;;;;;5072932;28;20032;-74
2022/11/07 05:38:05;;;;;;;9.07;4.35;;;;;;;;;;5091069;28;20127;-74
2022/11/07 05:40:32;;;;;;;6.15;3.30;;;;;;;;;;5090005;28;20035;-74
2022/11/07 05:42:59;;;;;;;7.10;2.72;;;;;;;;;;5090656;28;20028;-74
2022/11/07 05:45:25;;;;;;;5.90;2.97;;;;;;;;;;5091005;28;20047;-74
2022/11/07 05:48:01;;;;;;;6.53;3.00;;;;;;;;;;5091113;28;20264;-75
2022/11/07 05:50:28;;;;;;;6.85;3.30;;;;;;;;;;5072441;28;20084;-74
2022/11/07 05:52:54;;;;;;;6.28;2.90;;;;;;;;;;5090768;28;20025;-74
2022/11/07 05:55:20;;;;;;;9.15;3.50;;;;;;;;;;5090352;28;20024;-73
2022/11/07 05:57:46;;;;;;;7.15;3.40;;;;;;;;;;5090054;28;20044;-74
2022/11/07 06:00:12;;;;;;;8.93;3.30;;;;;;;;;;5090444;28;20036;-73
2022/11/07 06:02:37;;;;;;;8.23;3.90;;;;;;;;;;5090378;28;20111;-73
2022/11/07 06:05:03;;;;;;;10.73;4.13;;;;;;;;;;5072132;28;20165;-74
2022/11/07 06:07:28;;;;;;;8.85;3.88;;;;;;;;;;5090566;28;20055;-74
2022/11/07 06:09:53;;;;;;;6.63;3.70;;;;;;;;;;5089967;28;20101;-73
2022/11/07 06:12:19;;;;;;;7.18;3.33;;;;;;;;;;5090375;28;20494;-73
2022/11/07 06:14:44;;;;;;;9.68;3.30;;;;;;;;;;5089848;28;20020;-73
2022/11/07 06:17:09;;;;;;;7.28;3.60;;;;;;;;;;5090176;28;20012;-74
2022/11/07 06:19:35;;;;;;;12.27;3.75;;;;;;;;;;5090029;28;20050;-74
2022/11/07 06:22:00;;;;;;;6.70;3.40;;;;;;;;;;5090096;28;20020;-74
2022/11/07 06:24:26;;;;;;;6.90;3.30;;;;;;;;;;5089837;28;20472;-74
2022/11/07 06:26:52;;;;;;;6.82;3.38;;;;;;;;;;5090179;28;20032;-74
2022/11/07 06:29:17;;;;;;;8.52;3.50;;;;;;;;;;5089971;28;20116;-74
2022/11/07 06:31:43;;;;;;;8.63;3.47;;;;;;;;;;5071927;28;20164;-74
2022/11/07 06:34:08;;;;;;;5.75;3.30;;;;;;;;;;5089659;28;20028;-73
2022/11/07 06:36:34;;;;;;;9.85;3.60;;;;;;;;;;5090032;28;20088;-73
2022/11/07 06:38:59;;;;;;;7.65;3.50;;;;;;;;;;5090016;28;20552;-73
2022/11/07 06:41:24;;;;;;;8.63;3.20;;;;;;;;;;5090267;28;20028;-73
2022/11/07 06:43:50;;;;;;;6.82;3.30;;;;;;;;;;5089958;28;20035;-73
2022/11/07 06:46:18;;;;;;;6.10;3.17;;;;;;;;;;5090339;28;20032;-74
2022/11/07 06:48:44;;;;;;;7.68;3.40;;;;;;;;;;5089875;28;20043;-73
2022/11/07 06:51:10;;;;;;;7.60;3.70;;;;;;;;;;5089983;28;20028;-75
2022/11/07 06:53:36;;;;;;;8.40;4.07;;;;;;;;;;5091613;28;20032;-74
2022/11/07 06:56:03;;;;;;;11.75;3.78;;;;;;;;;;5094005;28;20077;-74
2022/11/07 06:58:29;;;;;;;8.57;4.47;;;;;;;;;;5093634;28;20052;-74
2022/11/07 07:01:03;;;;;;;6.45;3.72;;;;;;;;;;5093891;28;20028;-74
2022/11/07 07:03:29;;;;;;;8.05;3.95;;;;;;;;;;5093849;28;20031;-74
2022/11/07 07:06:00;;;;;;;6.97;3.70;;;;;;;;;;5075389;28;20028;-74
2022/11/07 07:08:25;;;;;;;7.82;3.80;;;;;;;;;;5093666;28;20499;-74
2022/11/07 07:10:51;;;;;;;7.07;4.00;;;;;;;;;;5093939;28;20063;-74
2022/11/07 07:13:16;;;;;;;6.63;3.25;;;;;;;;;;5075174;28;20028;-73
2022/11/07 07:15:41;;;;;;;8.32;3.53;;;;;;;;;;5075378;28;20064;-73
2022/11/07 07:18:07;;;;;;;7.65;3.55;;;;;;;;;;5093793;28;20031;-74
2022/11/07 07:20:32;;;;;;;8.88;3.58;;;;;;;;;;5093410;28;20168;-75
2022/11/07 07:22:58;;;;;;;7.32;3.72;;;;;;;;;;5093598;28;20048;-74
2022/11/07 07:25:24;;;;;;;6.60;3.50;;;;;;;;;;5093063;28;20039;-74
2022/11/07 07:27:49;;;;;;;7.32;3.33;;;;;;;;;;5093490;28;20020;-74
2022/11/07 07:30:15;;;;;;;9.20;3.55;;;;;;;;;;5093194;28;20024;-74
2022/11/07 07:32:40;;;;;;;10.85;3.50;;;;;;;;;;5093863;28;20032;-74
2022/11/07 07:35:08;;;;;;;6.60;3.42;;;;;;;;;;5092988;28;20028;-74
2022/11/07 07:37:33;;;;;;;7.65;3.35;;;;;;;;;;5093230;28;20123;-74
2022/11/07 07:39:59;;;;;;;7.55;3.58;;;;;;;;;;5092967;28;20103;-74
2022/11/07 07:42:24;;;;;;;10.23;3.67;;;;;;;;;;5093087;28;20365;-74
2022/11/07 07:44:49;;;;;;;6.63;3.00;;;;;;;;;;5092656;28;20024;-74
2022/11/07 07:47:15;;;;;;;9.02;3.40;;;;;;;;;;5093041;28;20031;-74
2022/11/07 07:49:40;;;;;;;8.50;3.08;;;;;;;;;;5092860;28;20498;-74
2022/11/07 07:52:06;;;;;;;8.93;3.15;;;;;;;;;;5074841;28;20440;-74
2022/11/07 07:54:31;;;;;;;10.75;3.42;;;;;;;;;;5092651;28;20027;-73
2022/11/07 07:56:56;;;;;;;8.43;3.20;;;;;;;;;;5092486;28;20052;-74
2022/11/07 07:59:22;;;;;;;6.38;3.10;;;;;;;;;;5093119;28;20119;-74
2022/11/07 08:01:47;;;;;;;9.77;3.65;;;;;;;;;;5092597;28;20125;-74
2022/11/07 08:04:13;;;;;;;11.02;3.53;;;;;;;;;;5091947;28;20024;-74
2022/11/07 08:06:38;;;;;;;7.10;2.95;;;;;;;;;;5074064;28;20391;-74
2022/11/07 08:09:04;;;;;;;7.20;2.78;;;;;;;;;;5092577;28;20098;-74
2022/11/07 08:11:29;;;;;;;5.60;2.88;;;;;;;;;;5092279;28;20020;-74
2022/11/07 08:13:55;;;;;;;8.50;3.53;;;;;;;;;;5092338;28;20089;-74
2022/11/07 08:16:20;;;;;;;6.95;3.13;;;;;;;;;;5092525;28;20028;-74
2022/11/07 08:18:45;;;;;;;6.13;2.92;;;;;;;;;;5092537;28;20027;-74
2022/11/07 08:21:11;;;;;;;6.93;2.92;;;;;;;;;;5092171;28;20047;-74
2022/11/07 08:23:36;;;;;;;9.07;3.47;;;;;;;;;;5074041;28;20194;-74
2022/11/07 08:26:03;;;;;;;9.75;3.80;;;;;;;;;;5092140;28;20505;-75
2022/11/07 08:28:31;;;;;;;7.57;3.40;;;;;;;;;;5092262;28;20611;-75
2022/11/07 08:31:07;;;;;;;6.95;3.38;;;;;;;;;;5092121;28;20024;-74
2022/11/07 08:33:33;;;;;;;8.45;3.38;;;;;;;;;;5092170;28;20129;-74
2022/11/07 08:35:59;;;;;;;8.23;2.90;;;;;;;;;;5092046;28;20099;-74
2022/11/07 08:38:25;;;;;;;5.80;3.30;;;;;;;;;;5092386;28;20055;-74
2022/11/07 08:40:51;;;;;;;8.68;3.55;;;;;;;;;;5092027;28;20020;-74
2022/11/07 08:43:17;;;;;;;7.35;3.00;;;;;;;;;;5091835;28;20535;-74
2022/11/07 08:45:44;;;;;;;6.32;2.92;;;;;;;;;;5091526;28;20545;-75
2022/11/07 08:48:10;;;;;;;9.80;2.97;;;;;;;;;;5091878;28;20032;-75
2022/11/07 08:50:35;;;;;;;9.88;3.35;;;;;;;;;;5073824;28;20036;-74
2022/11/07 08:53:01;;;;;;;10.40;3.50;;;;;;;;;;5092083;28;20387;-74
2022/11/07 08:55:26;;;;;;;8.52;3.10;;;;;;;;;;5091552;28;20129;-74
2022/11/07 08:57:56;;;;;;;9.02;3.33;;;;;;;;;;5091521;28;20047;-74
2022/11/07 09:00:22;;;;;;;9.40;3.28;;;;;;;;;;5091972;28;20241;-74
2022/11/07 09:02:47;;;;;;;7.13;3.42;;;;;;;;;;5091503;28;20066;-74
2022/11/07 09:05:13;;;;;;;12.05;3.85;;;;;;;;;;5091350;28;20020;-73
2022/11/07 09:07:39;;;;;;;16.55;3.83;;;;;;;;;;5091585;28;20027;-74
2022/11/07 09:10:04;;;;;;;15.07;3.97;;;;;;;;;;5091610;28;20031;-74
2022/11/07 09:12:30;;;;;;;10.02;3.63;;;;;;;;;;5091251;28;20024;-74
2022/11/07 09:14:55;;;;;;;11.25;3.40;;;;;;;;;;5091222;28;20024;-74
2022/11/07 09:17:20;;;;;;;12.00;3.65;;;;;;;;;;5090469;28;20479;-75
2022/11/07 09:19:46;;;;;;;8.43;3.28;;;;;;;;;;5091284;28;20031;-74
2022/11/07 09:22:11;;;;;;;10.80;3.60;;;;;;;;;;5091003;28;20024;-75
2022/11/07 09:24:37;;;;;;;7.13;3.30;;;;;;;;;;5072977;28;20031;-74
2022/11/07 09:27:02;;;;;;;10.05;3.30;;;;;;;;;;5090935;28;20028;-74
2022/11/07 09:29:27;;;;;;;8.80;3.42;;;;;;;;;;5091717;28;20069;-74
2022/11/07 09:31:53;;;;;;;8.90;3.40;;;;;;;;;;5072617;28;20035;-74
2022/11/07 09:34:18;;;;;;;6.82;3.38;;;;;;;;;;5090935;28;20050;-74
2022/11/07 09:36:44;;;;;;;7.72;3.67;;;;;;;;;;5072603;28;20089;-74
2022/11/07 09:39:09;;;;;;;6.38;3.53;;;;;;;;;;5091060;28;20055;-74
2022/11/07 09:42:25;;;;;;;9.93;4.00;;;;;;;;;;5072459;28;20107;-73
2022/11/07 09:45:00;;;;;;;13.90;4.03;;;;;;;;;;4988716;28;20389;-73
2022/11/07 09:47:36;;;;;;;9.60;3.90;;;;;;;;;;5086371;28;20115;-73
2022/11/07 09:50:47;;;;;;;9.85;3.70;;;;;;;;;;5091034;28;20102;-75
2022/11/07 09:53:27;;;;;;;11.93;4.18;;;;;;;;;;5090762;28;20062;-74
2022/11/07 09:55:58;;;;;;;11.03;3.83;;;;;;;;;;5090578;28;20058;-74
2022/11/07 09:58:37;;;;;;;10.80;4.03;;;;;;;;;;5090247;28;20093;-73
2022/11/07 10:01:05;;;;;;;7.85;3.80;;;;;;;;;;5072346;28;20263;-74
2022/11/07 10:03:34;;;;;;;11.85;3.67;;;;;;;;;;5090555;28;20063;-74
2022/11/07 10:06:14;;;;;;;11.50;4.28;;;;;;;;;;5072468;28;20034;-74
2022/11/07 10:08:49;;;;;;;12.88;4.30;;;;;;;;;;5090642;28;20021;-74
2022/11/07 10:11:21;;;;;;;12.35;4.15;;;;;;;;;;5090161;28;20031;-74
2022/11/07 10:14:11;;;;;;;8.65;3.80;;;;;;;;;;5090154;28;20028;-74
2022/11/07 10:17:01;;;;;;;7.82;3.63;;;;;;;;;;5071865;28;20090;-74
2022/11/07 10:19:43;;;;;;;8.38;3.50;;;;;;;;;;5072041;28;20032;-74
2022/11/07 10:22:17;;;;;;;9.35;3.88;;;;;;;;;;5089963;28;20032;-74
2022/11/07 10:25:07;;;;;;;10.95;3.70;;;;;;;;;;5090142;28;20031;-74
2022/11/07 10:27:34;;;;;;;7.80;3.53;;;;;;;;;;5090143;28;20035;-74
2022/11/07 10:30:00;;;;;;;8.70;3.60;;;;;;;;;;5090170;28;20020;-74
2022/11/07 10:32:44;;;;;;;11.45;4.28;;;;;;;;;;5089838;28;20032;-74
2022/11/07 10:35:31;;;;;;;8.73;3.08;;;;;;;;;;5089975;28;20479;-74
2022/11/07 10:38:00;;;;;;;7.43;3.42;;;;;;;;;;5090005;28;20111;-74
2022/11/07 10:40:39;;;;;;;8.10;3.28;;;;;;;;;;5090040;28;20020;-74
2022/11/07 10:43:12;;;;;;;10.98;3.03;;;;;;;;;;5089750;28;20059;-74
2022/11/07 10:45:38;;;;;;;7.10;3.08;;;;;;;;;;5090284;28;20089;-74
2022/11/07 10:48:04;;;;;;;9.80;3.00;;;;;;;;;;5089725;28;20107;-74
2022/11/07 10:50:30;;;;;;;6.45;2.88;;;;;;;;;;5090054;28;20115;-74
2022/11/07 10:53:02;;;;;;;6.22;2.67;;;;;;;;;;5089856;28;20024;-74
2022/11/07 10:55:40;;;;;;;10.60;3.10;;;;;;;;;;5071603;28;20058;-74
2022/11/07 10:58:06;;;;;;;9.05;2.72;;;;;;;;;;5067749;28;20041;-74
2022/11/07 11:00:35;;;;;;;6.40;2.58;;;;;;;;;;5068346;28;20116;-75
2022/11/07 11:03:04;;;;;;;6.35;2.38;;;;;;;;;;5069409;28;20396;-74
2022/11/07 11:05:29;;;;;;;7.82;2.63;;;;;;;;;;5068027;28;20024;-74
2022/11/07 11:07:56;;;;;;;7.95;2.45;;;;;;;;;;5069213;28;20074;-74
2022/11/07 11:10:30;;;;;;;6.18;2.40;;;;;;;;;;5069360;28;20021;-74
2022/11/07 11:12:56;;;;;;;6.25;2.00;;;;;;;;;;5069269;28;20503;-74
2022/11/07 11:15:26;;;;;;;4.60;2.05;;;;;;;;;;5069408;28;20036;-74
2022/11/07 11:18:01;;;;;;;6.53;1.97;;;;;;;;;;5069799;28;20029;-74
2022/11/07 11:20:37;;;;;;;5.47;1.67;;;;;;;;;;5069147;28;20040;-74
2022/11/07 11:23:06;;;;;;;6.85;1.60;;;;;;;;;;5069193;28;20131;-74
2022/11/07 11:25:43;;;;;;;5.95;1.38;;;;;;;;;;5069187;28;20056;-74
2022/11/07 11:28:19;;;;;;;5.07;1.13;;;;;;;;;;5069334;28;20591;-74
2022/11/07 11:30:47;;;;;;;3.03;1.10;;;;;;;;;;5069750;28;20039;-74
2022/11/07 11:33:17;;;;;;;2.35;1.05;;;;;;;;;;5069064;28;20020;-74
2022/11/07 11:35:48;;;;;;;;;;;;;;;;;;5069852;28;20021;-75
2022/11/07 11:38:23;;;;;;;2.72;1.00;;;;;;;;;;5069310;28;20115;-74
2022/11/07 11:41:00;;;;;;;5.32;1.17;;;;;;;;;;5072982;28;20036;-75
2022/11/07 11:43:37;;;;;;;2.22;1.00;;;;;;;;;;5072573;28;20027;-74
2022/11/07 11:46:11;;;;;;;2.33;0.98;;;;;;;;;;5072724;28;20025;-74
2022/11/07 11:48:46;;;;;;;1.83;0.98;;;;;;;;;;5072464;28;20035;-74
2022/11/07 11:51:18;;;;;;;2.97;1.08;;;;;;;;;;5072653;28;20043;-74
2022/11/07 11:53:44;;;;;;;5.72;1.08;;;;;;;;;;5072397;28;20028;-75
2022/11/07 11:56:21;;;;;;;3.35;1.10;;;;;;;;;;5072846;28;20024;-74
2022/11/07 11:59:12;;;;;;;3.22;1.10;;;;;;;;;;5090323;28;20117;-74
2022/11/07 12:01:50;;;;;;;4.68;1.20;;;;;;;;;;5092887;28;20035;-74
2022/11/07 12:04:26;;;;;;;3.05;1.20;;;;;;;;;;5092532;28;20025;-74
2022/11/07 12:07:02;;;;;;;2.90;1.05;;;;;;;;;;5092832;28;20449;-74
2022/11/07 12:10:02;;;;;;;2.30;0.95;;;;;;;;;;5092587;28;20491;-74
2022/11/07 12:12:41;;;;;;;3.23;1.40;;;;;;;;;;5092479;28;20224;-74
2022/11/07 12:15:27;;;;;;;5.03;1.35;;;;;;;;;;5074336;28;20024;-74
2022/11/07 12:18:20;;;;;;;3.10;1.20;;;;;;;;;;5092205;28;20521;-75
2022/11/07 12:20:52;;;;;;;2.33;1.10;;;;;;;;;;5073998;28;20514;-74
2022/11/07 12:23:28;;;;;;;2.50;0.90;;;;;;;;;;5073902;28;20068;-74
2022/11/07 12:26:18;;;;;;;3.38;1.10;;;;;;;;;;5092319;28;20028;-74
2022/11/07 12:28:55;;;;;;;2.78;1.17;;;;;;;;;;5092262;28;20023;-74
2022/11/07 12:31:31;;;;;;;2.67;0.90;;;;;;;;;;5092355;28;20115;-74
2022/11/07 12:34:05;;;;;;;3.67;1.00;;;;;;;;;;5073801;28;20395;-75
2022/11/07 12:37:16;;;;;;;3.40;1.00;;;;;;;;;;5091983;28;20024;-74
2022/11/07 12:40:11;;;;;;;2.00;0.88;;;;;;;;;;5035311;28;20040;-75
2022/11/07 12:42:44;;;;;;;2.80;1.30;;;;;;;;;;5073613;28;20054;-74
2022/11/07 12:45:34;;;;;;;4.60;1.00;;;;;;;;;;5073861;28;20059;-74
2022/11/07 12:48:08;;;;;;;3.67;0.90;;;;;;;;;;5091878;28;20035;-75
2022/11/07 12:50:39;;;;;;;4.15;1.00;;;;;;;;;;5092265;28;20529;-74
2022/11/07 12:53:04;;;;;;;3.70;0.90;;;;;;;;;;5091855;28;20048;-74
2022/11/07 12:55:55;;;;;;;3.70;1.00;;;;;;;;;;5091713;28;20055;-73
2022/11/07 12:58:29;;;;;;;5.50;1.10;;;;;;;;;;5091271;28;20113;-74
2022/11/07 13:00:55;;;;;;;1.48;0.90;;;;;;;;;;5091534;28;20540;-74
2022/11/07 13:04:06;;;;;;;2.22;0.90;;;;;;;;;;5091321;28;20054;-73
2022/11/07 13:07:01;;;;;;;1.65;0.80;;;;;;;;;;5073166;28;20050;-73
2022/11/07 13:09:45;;;;;;;2.97;1.00;;;;;;;;;;5039386;28;20047;-73
2022/11/07 13:12:25;;;;;;;2.72;0.85;;;;;;;;;;5091232;28;20480;-73
2022/11/07 13:14:51;;;;;;;6.55;1.33;;;;;;;;;;5072904;28;20077;-73
2022/11/07 13:17:26;;;;;;;1.67;0.77;;;;;;;;;;5091137;28;20035;-75
2022/11/07 13:20:04;;;;;;;5.55;1.15;;;;;;;;;;5091126;28;20043;-75
2022/11/07 13:22:36;;;;;;;1.95;1.00;;;;;;;;;;5073142;28;20020;-75
2022/11/07 13:25:20;;;;;;;2.60;1.00;;;;;;;;;;5091197;28;20020;-75
2022/11/07 13:28:23;;;;;;;3.13;0.90;;;;;;;;;;5091114;28;20024;-75
2022/11/07 13:30:54;;;;;;;3.15;0.90;;;;;;;;;;5091402;28;20024;-75
2022/11/07 13:33:31;;;;;;;6.30;0.98;;;;;;;;;;5091040;28;20024;-74
2022/11/07 13:36:24;;;;;;;3.75;1.05;;;;;;;;;;5091106;28;20094;-74
2022/11/07 13:38:53;;;;;;;4.18;1.20;;;;;;;;;;5078348;28;20050;-74
2022/11/07 13:41:19;;;;;;;6.75;1.23;;;;;;;;;;5091338;28;20098;-75
2022/11/07 13:43:49;;;;;;;3.08;1.00;;;;;;;;;;5090765;28;20031;-75
2022/11/07 13:46:46;;;;;;;6.00;1.07;;;;;;;;;;5091484;28;20506;-74
2022/11/07 13:49:22;;;;;;;2.80;1.10;;;;;;;;;;5070394;28;20058;-74
2022/11/07 13:51:49;;;;;;;4.30;1.05;;;;;;;;;;5072653;28;20115;-75
2022/11/07 13:54:33;;;;;;;3.22;0.90;;;;;;;;;;5090643;28;20032;-74
2022/11/07 13:57:26;;;;;;;3.75;1.05;;;;;;;;;;5090271;28;20071;-74
2022/11/07 13:59:56;;;;;;;5.45;0.90;;;;;;;;;;5079341;28;20403;-74
2022/11/07 14:02:26;;;;;;;2.72;0.90;;;;;;;;;;5090630;28;20537;-75
2022/11/07 14:04:54;;;;;;;2.22;1.10;;;;;;;;;;5090223;28;20024;-75
2022/11/07 14:07:22;;;;;;;3.38;0.90;;;;;;;;;;5090374;28;20020;-74
2022/11/07 14:09:54;;;;;;;3.63;1.27;;;;;;;;;;5090197;28;20042;-74
2022/11/07 14:12:20;;;;;;;1.95;0.93;;;;;;;;;;5090075;28;20518;-75
2022/11/07 14:14:52;;;;;;;4.05;1.20;;;;;;;;;;5090282;28;20035;-74
2022/11/07 14:17:19;;;;;;;3.30;1.02;;;;;;;;;;5090274;28;20085;-74
2022/11/07 14:19:44;;;;;;;3.40;0.90;;;;;;;;;;5090140;28;20032;-74
2022/11/07 14:22:24;;;;;;;3.88;1.10;;;;;;;;;;5090414;28;20524;-74
2022/11/07 14:24:55;;;;;;;4.22;1.20;;;;;;;;;;5090086;28;20558;-74
2022/11/07 14:27:21;;;;;;;3.88;0.88;;;;;;;;;;5090097;28;20055;-74
2022/11/07 14:29:51;;;;;;;3.53;1.08;;;;;;;;;;5089824;28;20111;-74
2022/11/07 14:32:17;;;;;;;2.75;1.23;;;;;;;;;;5090211;28;20031;-74
2022/11/07 14:34:45;;;;;;;4.40;1.27;;;;;;;;;;5090146;28;20024;-74
2022/11/07 14:37:14;;;;;;;3.78;1.10;;;;;;;;;;5089930;28;20097;-74
2022/11/07 14:39:39;;;;;;;2.92;1.10;;;;;;;;;;5090196;28;20525;-74
2022/11/07 14:42:05;;;;;;;2.95;1.20;;;;;;;;;;5071648;28;20020;-74
2022/11/07 14:44:37;;;;;;;3.20;1.10;;;;;;;;;;5089617;28;20072;-74
2022/11/07 14:47:06;;;;;;;2.97;1.20;;;;;;;;;;5089754;28;20028;-74
2022/11/07 14:49:43;;;;;;;2.28;1.00;;;;;;;;;;5089704;28;20627;-75
2022/11/07 14:52:22;;;;;;;2.75;1.10;;;;;;;;;;5090120;28;20028;-74
2022/11/07 14:54:54;;;;;;;2.22;1.08;;;;;;;;;;5071802;28;20039;-74
2022/11/07 14:57:20;;;;;;;4.97;1.23;;;;;;;;;;5089483;28;20044;-75
2022/11/07 14:59:46;;;;;;;4.03;1.23;;;;;;;;;;5089661;28;20400;-74
2022/11/07 15:02:11;;;;;;;2.78;1.10;;;;;;;;;;5089989;28;20039;-74
2022/11/07 15:04:40;;;;;;;3.50;1.17;;;;;;;;;;5089744;28;20369;-74
2022/11/07 15:07:32;;;;;;;4.32;1.20;;;;;;;;;;5089748;28;20020;-74